Time;durP1;ratioP1;P1;durP2;ratioP2;P2;SDS_P1;SDS_P2;PMS_P1;PMS_P2;Temp;Humidity;BMP_temperature;BMP_pressure;BME280_temperature;BME280_humidity;BME280_pressure;Samples;Min_cycle;Max_cycle;Signal;HPM_P1;HPM_P2
2021/05/11 00:04:01;;;;;;;1999.90;999.90;;;;;;;20.19;58.78;100308.84;15859768;28;20054;-59
2021/05/11 00:11:34;;;;;;;1999.90;999.90;;;;;;;20.08;58.23;100310.91;15860813;28;20036;-60
2021/05/11 00:19:07;;;;;;;1999.90;999.90;;;;;;;19.97;58.21;100304.44;15842551;28;20048;-60
2021/05/11 00:26:40;;;;;;;1999.90;999.90;;;;;;;19.87;57.66;100291.91;15858885;28;20115;-60
2021/05/11 00:34:11;;;;;;;1999.90;999.90;;;;;;;19.91;57.19;100272.94;15842943;28;20173;-60
2021/05/11 00:41:44;;;;;;;1999.90;999.90;;;;;;;19.84;57.77;100270.91;15859187;28;20195;-59
2021/05/11 00:49:15;;;;;;;1999.90;999.90;;;;;;;19.72;57.55;100271.34;15859373;28;20074;-59
2021/05/11 00:56:49;;;;;;;1999.90;999.90;;;;;;;19.54;58.25;100253.53;15857097;28;20126;-61
2021/05/11 01:04:21;;;;;;;1999.90;999.90;;;;;;;19.58;58.18;100255.16;15857486;28;20044;-61
2021/05/11 01:11:54;;;;;;;1999.90;999.90;;;;;;;19.60;58.19;100264.06;15842075;28;20525;-58
2021/05/11 01:19:28;;;;;;;;;;;;;;;19.64;57.98;100260.41;15858357;28;20055;-60
2021/05/11 01:27:05;;;;;;;1999.90;999.90;;;;;;;19.35;58.71;100249.06;15858389;28;19935;-60
2021/05/11 01:50:21;;;;;;;1999.90;999.90;;;;;;;19.07;59.43;100224.44;15855887;28;20039;-58
2021/05/11 02:29:13;;;;;;;1999.90;999.90;;;;;;;19.03;60.84;100212.28;15859209;28;20117;-60
2021/05/11 02:36:44;;;;;;;1999.90;999.90;;;;;;;18.91;61.00;100207.03;15867321;28;20530;-61
2021/05/11 02:44:19;;;;;;;1999.90;999.90;;;;;;;18.82;61.66;100200.97;15865675;28;20047;-61
2021/05/11 02:51:51;;;;;;;1999.90;999.90;;;;;;;18.91;61.76;100202.19;15866738;28;20089;-61
2021/05/11 02:59:23;;;;;;;1999.90;999.90;;;;;;;18.83;61.75;100199.75;15848426;28;20152;-61
2021/05/11 03:06:57;;;;;;;1999.90;999.90;;;;;;;18.89;61.79;100203.81;15864076;28;20436;-57
2021/05/11 03:14:33;;;;;;;1999.90;999.90;;;;;;;19.00;61.64;100211.09;15863905;28;20047;-61
2021/05/11 03:22:04;;;;;;;1999.90;999.90;;;;;;;18.87;61.74;100204.22;15865285;28;20135;-61
2021/05/11 03:29:37;;;;;;;1999.90;999.90;;;;;;;18.73;61.51;100212.66;15863776;28;20146;-61
2021/05/11 03:37:09;;;;;;;1999.90;999.90;;;;;;;18.71;61.61;100190.44;15864709;28;20476;-59
2021/05/11 03:44:44;;;;;;;1999.90;999.90;;;;;;;18.63;62.21;100187.97;15845298;28;20511;-58
2021/05/11 03:52:16;;;;;;;1999.90;999.90;;;;;;;18.45;62.79;100171.81;15861589;28;20492;-60
2021/05/11 03:59:49;;;;;;;1999.90;999.90;;;;;;;18.39;63.08;100158.47;15843495;28;20388;-60
2021/05/11 04:07:20;;;;;;;1999.90;999.90;;;;;;;18.63;62.22;100146.41;15842962;28;20042;-60
2021/05/11 04:22:42;;;;;;;1999.90;999.90;;;;;;;19.11;61.17;100134.75;15859261;28;20048;-58
2021/05/11 04:30:18;;;;;;;1999.90;999.90;;;;;;;19.10;61.14;100135.97;15859097;28;20071;-60
2021/05/11 04:37:49;;;;;;;1999.90;999.90;;;;;;;19.65;59.63;100131.84;15859321;28;20055;-60
2021/05/11 04:45:26;;;;;;;1999.90;999.90;;;;;;;19.84;59.27;100118.03;15860654;28;20035;-61
2021/05/11 04:52:58;;;;;;;1999.90;999.90;;;;;;;20.11;58.23;100129.66;15859375;28;20043;-61
2021/05/11 05:00:31;;;;;;;1999.90;999.90;;;;;;;20.58;56.80;100120.91;15842055;28;20043;-62
2021/05/11 05:08:03;;;;;;;1999.90;999.90;;;;;;;20.31;57.38;100109.28;15852103;28;20104;-62
2021/05/11 05:15:35;;;;;;;1999.90;999.90;;;;;;;20.46;57.33;100102.34;15857911;28;20040;-61
2021/05/11 05:23:07;;;;;;;1999.90;999.90;;;;;;;20.38;57.54;100095.09;15858649;28;20089;-60
2021/05/11 05:30:40;;;;;;;1999.90;999.90;;;;;;;20.79;56.44;100078.22;15857650;28;20365;-61
2021/05/11 05:38:12;;;;;;;1999.90;999.90;;;;;;;20.59;57.26;100072.28;15854860;28;20123;-60
2021/05/11 05:45:47;;;;;;;1999.90;999.90;;;;;;;21.26;55.05;100087.13;15841104;28;20051;-60
2021/05/11 05:53:23;;;;;;;1999.90;999.90;;;;;;;21.49;55.23;100084.44;15858430;28;20098;-62
2021/05/11 06:00:59;;;;;;;1999.90;999.90;;;;;;;21.23;55.76;100076.56;15860723;28;20113;-62
2021/05/11 06:08:32;;;;;;;1999.90;999.90;;;;;;;21.80;55.32;100067.44;15869448;28;20073;-59
2021/05/11 06:23:54;;;;;;;1999.90;999.90;;;;;;;21.70;55.25;100096.78;15868476;28;20050;-61
2021/05/11 06:31:26;;;;;;;1999.90;999.90;;;;;;;22.29;53.54;100102.91;15866131;28;20058;-61
2021/05/11 06:38:58;;;;;;;1999.90;999.90;;;;;;;22.04;54.46;100088.22;15865647;28;20042;-61
2021/05/11 06:54:32;;;;;;;1999.90;999.90;;;;;;;22.65;52.56;100086.13;15794786;27;20059;-59
2021/05/11 07:02:04;;;;;;;1999.90;999.90;;;;;;;22.46;53.77;100078.31;15863228;28;20525;-59
2021/05/11 07:09:49;;;;;;;1999.90;999.90;;;;;;;23.13;54.56;100087.75;15847026;28;20054;-63
2021/05/11 07:17:21;;;;;;;1999.90;999.90;;;;;;;24.76;47.87;100112.03;15864361;28;20059;-61
2021/05/11 07:24:55;;;;;;;1999.90;999.90;;;;;;;27.06;44.46;100122.22;15858744;28;20156;-59
2021/05/11 07:32:28;;;;;;;1999.90;999.90;;;;;;;26.74;43.12;100118.31;15856398;28;20739;-61
2021/05/11 07:40:00;;;;;;;1999.90;999.90;;;;;;;27.78;42.59;100111.91;15860136;28;20562;-61
2021/05/11 07:47:37;;;;;;;1999.90;999.90;;;;;;;27.66;44.13;100087.00;15818123;28;20480;-59
2021/05/11 08:03:22;;;;;;;1999.90;999.90;;;;;;;28.01;42.16;100096.31;15779514;28;20063;-60
2021/05/11 08:18:47;;;;;;;1999.90;999.90;;;;;;;28.56;41.52;100080.22;15795180;28;20415;-62
2021/05/11 08:34:09;;;;;;;1999.90;999.90;;;;;;;26.01;49.08;100060.13;15855139;28;20062;-60
2021/05/11 08:41:40;;;;;;;;;;;;;;;27.83;44.87;100082.69;15857203;28;20084;-61
2021/05/11 08:49:14;;;;;;;1999.90;999.90;;;;;;;26.59;47.86;100073.47;15854041;28;20015;-62
2021/05/11 09:04:45;;;;;;;1999.90;999.90;;;;;;;30.31;39.61;100096.34;15859129;28;20100;-60
2021/05/11 09:28:24;;;;;;;1999.90;999.90;;;;;;;31.98;36.43;100066.00;15856182;28;20063;-61
2021/05/11 10:46:51;;;;;;;1999.90;999.90;;;;;;;35.53;28.87;99989.84;15862767;28;20069;-58
2021/05/11 10:54:35;;;;;;;1999.90;999.90;;;;;;;35.54;31.23;99988.56;15819444;28;20052;-59
2021/05/11 11:02:25;;;;;;;1999.90;999.90;;;;;;;37.26;30.00;99992.59;15797068;28;20051;-58
2021/05/11 11:09:59;;;;;;;1999.90;999.90;;;;;;;35.08;30.67;99991.81;15862277;28;20036;-60
2021/05/11 11:17:40;;;;;;;1999.90;999.90;;;;;;;36.33;31.11;99987.28;15842519;22;20496;-74
2021/05/11 11:25:15;;;;;;;1999.90;999.90;;;;;;;36.25;28.59;99968.81;15774668;28;20044;-74
2021/05/11 11:32:47;;;;;;;1999.90;999.90;;;;;;;38.36;28.39;99973.34;15790784;22;20052;-59
2021/05/11 11:40:19;;;;;;;1999.90;999.90;;;;;;;36.87;28.17;99952.06;15796164;28;20065;-62
2021/05/11 11:47:55;;;;;;;1999.90;999.90;;;;;;;37.92;26.17;99960.72;15797867;28;20098;-59
2021/05/11 11:55:52;;;;;;;1999.90;999.90;;;;;;;34.90;29.66;99958.25;15801849;28;20036;-55
2021/05/11 12:03:24;;;;;;;1999.90;999.90;;;;;;;36.35;30.17;99954.84;15853728;28;20064;-55
2021/05/11 12:11:00;;;;;;;1999.90;999.90;;;;;;;36.04;28.65;99953.78;15794575;28;20150;-60
2021/05/11 12:18:32;;;;;;;1999.90;999.90;;;;;;;37.56;27.09;99959.94;15793926;28;20059;-56
2021/05/11 12:26:06;;;;;;;1999.90;999.90;;;;;;;36.96;28.83;99953.88;15777050;28;20357;-55
2021/05/11 12:33:41;;;;;;;1999.90;999.90;;;;;;;35.53;30.96;99935.53;15793383;28;20048;-55
2021/05/11 12:41:31;;;;;;;1999.90;999.90;;;;;;;37.27;28.67;99938.91;15795103;28;20070;-56
2021/05/11 12:49:04;;;;;;;1999.90;999.90;;;;;;;40.29;24.27;99942.56;15794207;28;20097;-56
2021/05/11 12:56:48;;;;;;;1999.90;999.90;;;;;;;40.88;24.27;99947.03;15791127;28;20044;-58
2021/05/11 13:04:53;;;;;;;1999.90;999.90;;;;;;;42.08;21.31;99951.16;15856359;28;20567;-59
2021/05/11 13:20:32;;;;;;;1999.90;999.90;;;;;;;43.23;20.96;99902.84;15793717;28;20052;-53
2021/05/11 13:28:10;;;;;;;1999.90;999.90;;;;;;;35.15;30.16;99886.94;15776148;28;20508;-57
2021/05/11 13:35:42;;;;;;;1999.90;999.90;;;;;;;34.21;30.59;99870.72;15782904;28;20053;-59
2021/05/11 13:43:14;;;;;;;1999.90;999.90;;;;;;;33.75;31.18;99872.47;15793094;28;20127;-55
2021/05/11 13:50:55;;;;;;;1999.90;999.90;;;;;;;33.10;32.84;99862.66;15777289;28;20032;-55
2021/05/11 14:06:18;;;;;;;1999.90;999.90;;;;;;;32.47;34.05;99850.88;15791243;28;20400;-53
2021/05/11 14:13:50;;;;;;;1999.90;999.90;;;;;;;32.85;32.95;99849.78;15851482;28;20044;-57
2021/05/11 14:21:22;;;;;;;1999.90;999.90;;;;;;;32.04;34.41;99836.91;15835681;28;20135;-59
2021/05/11 14:28:56;;;;;;;1999.90;999.90;;;;;;;32.95;32.84;99840.44;15807239;28;20055;-58
2021/05/11 14:36:28;;;;;;;1999.90;999.90;;;;;;;33.05;34.33;99834.50;15801175;28;20117;-57
2021/05/11 14:44:01;;;;;;;1999.90;999.90;;;;;;;32.78;33.40;99829.97;15807381;28;20048;-56
2021/05/11 14:51:33;;;;;;;1999.90;999.90;;;;;;;31.65;35.33;99827.63;15846668;28;20664;-55
2021/05/11 14:59:05;;;;;;;;;;;;;;;31.59;34.88;99818.09;15864511;28;20131;-59
2021/05/11 15:06:37;;;;;;;1999.90;999.90;;;;;;;31.69;36.12;99827.44;15862695;28;19942;-58
2021/05/11 15:14:09;;;;;;;;;;;;;;;30.93;39.36;99827.13;15864252;28;20496;-60
2021/05/11 15:21:41;;;;;;;1999.90;999.90;;;;;;;29.95;41.73;99826.88;15863381;28;20333;-59
2021/05/11 15:29:13;;;;;;;1999.90;999.90;;;;;;;29.75;41.68;99843.91;15822280;22;20059;-73
2021/05/11 15:36:45;;;;;;;1999.90;999.90;;;;;;;29.64;42.12;99832.16;15836101;28;20090;-71
2021/05/11 15:44:17;;;;;;;1999.90;999.90;;;;;;;29.27;42.53;99824.41;15809499;22;20048;-59
2021/05/11 15:51:48;;;;;;;1999.90;999.90;;;;;;;29.19;42.74;99828.94;15800398;28;20052;-61
2021/05/11 15:59:21;;;;;;;1999.90;999.90;;;;;;;28.92;43.76;99829.78;15787886;28;20464;-61
2021/05/11 16:06:53;;;;;;;1999.90;999.90;;;;;;;28.86;42.95;99825.13;15780552;28;20825;-62
2021/05/11 16:14:25;;;;;;;1999.90;999.90;;;;;;;28.40;44.62;99825.94;15804979;28;20062;-64
2021/05/11 16:21:57;;;;;;;1999.90;999.90;;;;;;;28.36;43.35;99813.03;15769807;28;20193;-61
2021/05/11 16:29:29;;;;;;;1999.90;999.90;;;;;;;28.22;44.12;99831.63;15787265;28;20489;-59
2021/05/11 16:37:02;;;;;;;1999.90;999.90;;;;;;;28.16;44.53;99810.59;15804033;28;20040;-60
2021/05/11 16:44:35;;;;;;;1999.90;999.90;;;;;;;27.72;45.96;99793.63;15802893;28;20052;-60
2021/05/11 16:52:07;;;;;;;1999.90;999.90;;;;;;;27.33;47.09;99780.88;15801736;28;20040;-62
2021/05/11 16:59:40;;;;;;;1999.90;999.90;;;;;;;27.23;47.66;99782.09;15784135;28;20048;-63
2021/05/11 17:07:11;;;;;;;;;;;;;;;27.27;47.84;99769.22;15768120;28;20143;-64
2021/05/11 17:14:44;;;;;;;1999.90;999.90;;;;;;;27.02;48.13;99781.69;15784581;28;19955;-62
2021/05/11 17:22:16;;;;;;;1999.90;999.90;;;;;;;26.91;48.74;99783.31;15778551;28;20040;-62
2021/05/11 17:29:48;;;;;;;1999.90;999.90;;;;;;;26.57;50.63;99793.56;15784020;28;20134;-59
2021/05/11 17:37:20;;;;;;;;;;;;;;;26.46;51.07;99796.03;15802114;28;20078;-63
2021/05/11 17:44:52;;;;;;;1999.90;999.90;;;;;;;25.69;53.09;99806.81;15783006;28;19935;-64
2021/05/11 17:52:24;;;;;;;1999.90;999.90;;;;;;;25.17;55.25;99815.81;15801271;28;20044;-63
2021/05/11 17:59:57;;;;;;;1999.90;999.90;;;;;;;25.12;53.61;99834.31;15789469;28;20131;-60
2021/05/11 18:07:28;;;;;;;1999.90;999.90;;;;;;;24.55;55.94;99838.78;15795076;28;20036;-62
2021/05/11 18:15:01;;;;;;;1999.90;999.90;;;;;;;23.75;57.61;99834.75;15795599;28;20048;-63
2021/05/11 18:22:33;;;;;;;1999.90;999.90;;;;;;;23.89;57.13;99840.09;15789452;28;20139;-64
2021/05/11 18:30:08;;;;;;;1999.90;999.90;;;;;;;23.75;57.50;99854.69;15812313;28;20036;-57
2021/05/11 18:37:42;;;;;;;1999.90;999.90;;;;;;;23.44;58.61;99854.97;15792940;28;20040;-60
2021/05/11 18:45:17;;;;;;;1999.90;999.90;;;;;;;22.99;59.96;99869.78;15803696;28;20051;-59
2021/05/11 18:52:48;;;;;;;1999.90;999.90;;;;;;;22.62;60.10;99882.28;15807883;28;20123;-60
2021/05/11 19:00:22;;;;;;;1999.90;999.90;;;;;;;22.06;61.61;99921.00;15793078;28;20055;-61
2021/05/11 19:07:54;;;;;;;1999.90;999.90;;;;;;;22.18;60.96;99949.63;15785342;28;20036;-62
2021/05/11 19:15:26;;;;;;;1999.90;999.90;;;;;;;21.56;62.43;99950.13;15805477;28;20051;-65
2021/05/11 19:22:58;;;;;;;1999.90;999.90;;;;;;;21.66;62.03;99966.22;15787961;28;20051;-62
2021/05/11 19:30:33;;;;;;;1999.90;999.90;;;;;;;21.56;61.70;99978.50;15787073;28;20075;-63
2021/05/11 19:38:04;;;;;;;1999.90;999.90;;;;;;;21.07;62.82;100014.75;15768216;28;20511;-64
2021/05/11 19:45:38;;;;;;;1999.90;999.90;;;;;;;20.95;62.54;100030.28;15799346;28;20302;-61
2021/05/11 19:53:09;;;;;;;1999.90;999.90;;;;;;;20.62;63.50;100077.13;15786145;28;20094;-59
2021/05/11 20:00:42;;;;;;;1999.90;999.90;;;;;;;20.87;62.79;100113.00;15786418;28;20558;-61
2021/05/11 20:08:13;;;;;;;1999.90;999.90;;;;;;;20.53;63.82;100133.50;15804506;28;20064;-66
2021/05/11 20:15:46;;;;;;;1999.90;999.90;;;;;;;20.74;64.33;100121.19;15770466;28;20059;-65
2021/05/11 20:23:19;;;;;;;1999.90;999.90;;;;;;;20.05;70.66;100073.84;15783106;28;20085;-63
2021/05/11 20:30:51;;;;;;;;;;;;;;;19.40;76.20;100002.56;15805851;28;20044;-62
2021/05/11 20:38:23;;;;;;;1999.90;999.90;;;;;;;19.31;76.11;99937.94;15782580;28;19920;-62
2021/05/11 20:45:55;;;;;;;1999.90;999.90;;;;;;;19.05;77.54;99935.63;15768775;28;20063;-61
2021/05/11 20:53:27;;;;;;;1999.90;999.90;;;;;;;19.07;77.79;99943.69;15803047;28;20040;-61
2021/05/11 21:00:59;;;;;;;1999.90;999.90;;;;;;;19.21;77.19;99929.50;15796883;28;20075;-63
2021/05/11 21:08:31;;;;;;;1999.90;999.90;;;;;;;19.00;77.14;99900.09;15784283;28;20094;-64
2021/05/11 21:16:05;;;;;;;1999.90;999.90;;;;;;;19.19;76.94;99915.78;15802122;28;20127;-62
2021/05/11 21:23:37;;;;;;;1999.90;999.90;;;;;;;19.30;76.32;99912.91;15767361;28;20516;-61
2021/05/11 21:31:09;;;;;;;1999.90;999.90;;;;;;;19.69;75.03;99924.00;15767684;28;20463;-59
2021/05/11 21:38:41;;;;;;;1999.90;999.90;;;;;;;19.90;74.04;99945.69;15780419;28;20101;-62
2021/05/11 21:46:13;;;;;;;1999.90;999.90;;;;;;;19.81;73.52;99962.38;15814687;28;20075;-61
2021/05/11 21:53:45;;;;;;;1999.90;999.90;;;;;;;19.93;74.01;99970.38;15814287;28;20048;-60
2021/05/11 22:01:17;;;;;;;1999.90;999.90;;;;;;;19.95;74.36;99992.59;15815195;28;20063;-60
2021/05/11 22:08:49;;;;;;;1999.90;999.90;;;;;;;19.87;75.64;99986.16;15779101;28;20066;-61
2021/05/11 22:16:29;;;;;;;1999.90;999.90;;;;;;;19.69;74.95;100014.56;15794663;28;20054;-62
2021/05/11 22:24:01;;;;;;;1999.90;999.90;;;;;;;18.80;79.98;100023.31;15794102;28;20338;-63
2021/05/11 22:31:34;;;;;;;1999.90;999.90;;;;;;;18.79;79.82;100010.41;15812305;28;20056;-61
2021/05/11 22:39:06;;;;;;;;;;;;;;;18.78;79.88;100002.34;15777386;28;20326;-61
2021/05/11 22:46:40;;;;;;;;;;;;;;;18.91;79.18;100000.69;15792038;28;19973;-62
2021/05/11 22:54:11;;;;;;;1999.90;999.90;;;;;;;18.66;78.92;99990.25;15792336;28;20280;-61
2021/05/11 23:01:44;;;;;;;1999.90;999.90;;;;;;;18.46;78.37;99984.16;15810353;28;20044;-60
2021/05/11 23:09:15;;;;;;;1999.90;999.90;;;;;;;18.68;77.17;99978.53;15790757;28;20051;-59
2021/05/11 23:16:53;;;;;;;1999.90;999.90;;;;;;;18.59;76.66;99961.94;15808747;28;20527;-61
2021/05/11 23:24:26;;;;;;;1999.90;999.90;;;;;;;18.57;77.08;99977.69;15787870;28;20101;-62
2021/05/11 23:31:58;;;;;;;1999.90;999.90;;;;;;;17.92;78.83;99988.13;15773851;28;20093;-60
2021/05/11 23:39:30;;;;;;;1999.90;999.90;;;;;;;17.70;79.44;100001.41;15789824;28;20044;-61
2021/05/11 23:47:02;;;;;;;1999.90;999.90;;;;;;;17.66;79.70;99989.28;15772181;28;20043;-61
2021/05/11 23:54:34;;;;;;;1999.90;999.90;;;;;;;17.49;79.31;100013.38;15807127;28;20462;-63
